Time;durP1;ratioP1;P1;durP2;ratioP2;P2;SDS_P1;SDS_P2;PMS_P1;PMS_P2;Temp;Humidity;BMP_temperature;BMP_pressure;BME280_temperature;BME280_humidity;BME280_pressure;Samples;Min_cycle;Max_cycle;Signal;HPM_P1;HPM_P2
2023/01/21 00:01:28;;;;;;;;;45.00;35.25;;;;;;;;5082741;27;51140;-54
2023/01/21 00:04:13;;;;;;;;;44.75;35.00;;;;;;;;5086759;27;51314;-52
2023/01/21 00:06:57;;;;;;;;;40.00;32.25;;;;;;;;5091680;27;51089;-54
2023/01/21 00:09:42;;;;;;;;;44.75;35.00;;;;;;;;5083575;27;51578;-53
2023/01/21 00:12:26;;;;;;;;;36.50;31.75;;;;;;;;5085461;27;51160;-51
2023/01/21 00:15:11;;;;;;;;;44.00;35.75;;;;;;;;5086482;27;51120;-48
2023/01/21 00:17:55;;;;;;;;;39.25;32.00;;;;;;;;5083936;27;51130;-50
2023/01/21 00:20:39;;;;;;;;;42.25;33.00;;;;;;;;5091797;27;51311;-53
2023/01/21 00:23:24;;;;;;;;;44.25;33.50;;;;;;;;5089766;27;51062;-56
2023/01/21 00:26:10;;;;;;;;;46.50;34.25;;;;;;;;5089807;27;51228;-54
2023/01/21 00:29:01;;;;;;;;;31.00;28.00;;;;;;;;5085630;27;51456;-58
2023/01/21 00:31:46;;;;;;;;;47.00;34.75;;;;;;;;5084671;27;51166;-55
2023/01/21 00:34:30;;;;;;;;;44.50;34.75;;;;;;;;5082638;27;51623;-55
2023/01/21 00:37:14;;;;;;;;;44.25;35.25;;;;;;;;5082880;27;51216;-50
2023/01/21 00:39:59;;;;;;;;;34.75;30.75;;;;;;;;5083697;27;52006;-53
2023/01/21 00:42:43;;;;;;;;;36.25;32.00;;;;;;;;5084677;27;51202;-53
2023/01/21 00:45:27;;;;;;;;;44.25;33.25;;;;;;;;5081299;27;51396;-48
2023/01/21 00:48:12;;;;;;;;;37.00;30.50;;;;;;;;5075432;27;51579;-51
2023/01/21 00:50:59;;;;;;;;;45.75;33.00;;;;;;;;5088760;27;51230;-54
2023/01/21 00:53:43;;;;;;;;;44.25;33.50;;;;;;;;5088316;27;51358;-52
2023/01/21 00:56:27;;;;;;;;;47.50;34.25;;;;;;;;5080195;27;51128;-53
2023/01/21 00:59:12;;;;;;;;;40.25;32.75;;;;;;;;5085319;27;51218;-54
2023/01/21 01:01:56;;;;;;;;;41.75;31.25;;;;;;;;5082995;27;51143;-54
2023/01/21 01:04:41;;;;;;;;;45.75;34.50;;;;;;;;5086278;27;51157;-52
2023/01/21 01:07:25;;;;;;;;;37.25;33.00;;;;;;;;5084471;27;51192;-55
2023/01/21 01:10:10;;;;;;;;;41.00;33.50;;;;;;;;5088942;27;51089;-53
2023/01/21 01:12:54;;;;;;;;;42.00;33.25;;;;;;;;5082787;27;51698;-54
2023/01/21 01:15:38;;;;;;;;;42.25;33.25;;;;;;;;5085140;27;51212;-53
2023/01/21 01:18:23;;;;;;;;;45.00;34.75;;;;;;;;5086925;27;51384;-50
2023/01/21 01:21:12;;;;;;;;;33.25;27.00;;;;;;;;5087452;27;51193;-53
2023/01/21 01:24:00;;;;;;;;;33.50;31.00;;;;;;;;5086004;27;51535;-52
2023/01/21 01:26:44;;;;;;;;;42.50;31.75;;;;;;;;5084303;27;51207;-53
2023/01/21 01:29:29;;;;;;;;;40.50;32.75;;;;;;;;5086315;27;51086;-55
2023/01/21 01:32:13;;;;;;;;;47.75;35.00;;;;;;;;5092440;27;51233;-53
2023/01/21 01:34:58;;;;;;;;;40.25;32.00;;;;;;;;5090435;27;51370;-51
2023/01/21 01:37:43;;;;;;;;;45.00;33.50;;;;;;;;5090658;27;51486;-54
2023/01/21 01:40:31;;;;;;;;;49.75;35.00;;;;;;;;5089866;27;51257;-49
2023/01/21 01:43:18;;;;;;;;;42.50;32.50;;;;;;;;5095045;27;52376;-54
2023/01/21 01:46:02;;;;;;;;;47.75;35.25;;;;;;;;5092613;27;51172;-52
2023/01/21 01:49:13;;;;;;;;;45.75;35.25;;;;;;;;5082825;27;51175;-54
2023/01/21 01:52:02;;;;;;;;;45.75;36.00;;;;;;;;5086091;27;51198;-53
2023/01/21 01:54:49;;;;;;;;;46.50;35.75;;;;;;;;5087720;27;51137;-55
2023/01/21 01:57:35;;;;;;;;;41.00;33.75;;;;;;;;5092003;27;51540;-53
2023/01/21 02:00:20;;;;;;;;;42.75;34.25;;;;;;;;5087118;27;51123;-54
2023/01/21 02:06:07;;;;;;;;;45.50;35.25;;;;;;;;5086784;27;51140;-55
2023/01/21 02:08:53;;;;;;;;;43.75;35.00;;;;;;;;5090380;27;51170;-53
2023/01/21 02:11:37;;;;;;;;;37.00;32.25;;;;;;;;5092781;27;51174;-53
2023/01/21 02:14:21;;;;;;;;;40.00;32.25;;;;;;;;5090030;27;51100;-51
2023/01/21 02:17:21;;;;;;;;;39.50;31.00;;;;;;;;5087730;27;51211;-51
2023/01/21 02:20:18;;;;;;;;;42.25;34.25;;;;;;;;5095067;27;51228;-52
2023/01/21 02:23:08;;;;;;;;;44.25;33.00;;;;;;;;5088510;27;51192;-52
2023/01/21 02:26:09;;;;;;;;;44.25;35.50;;;;;;;;5090139;27;51225;-55
2023/01/21 02:28:54;;;;;;;;;48.25;34.25;;;;;;;;5091781;27;51501;-51
2023/01/21 02:31:57;;;;;;;;;37.50;33.00;;;;;;;;5085404;27;51159;-50
2023/01/21 02:34:53;;;;;;;;;39.25;32.75;;;;;;;;5090652;27;51551;-49
2023/01/21 02:37:50;;;;;;;;;40.50;31.00;;;;;;;;5085783;27;51200;-54
2023/01/21 02:40:45;;;;;;;;;47.50;34.00;;;;;;;;5088622;27;51172;-49
2023/01/21 02:43:42;;;;;;;;;50.75;35.75;;;;;;;;5084953;27;51195;-51
2023/01/21 02:46:36;;;;;;;;;47.75;36.75;;;;;;;;5088811;27;51060;-55
2023/01/21 02:49:26;;;;;;;;;47.25;36.75;;;;;;;;5087238;27;51509;-54
2023/01/21 02:52:17;;;;;;;;;45.50;37.75;;;;;;;;5091219;27;51071;-55
2023/01/21 02:55:02;;;;;;;;;47.75;35.25;;;;;;;;5089721;27;51145;-53
2023/01/21 02:57:53;;;;;;;;;50.25;38.25;;;;;;;;5089968;27;51055;-52
2023/01/21 03:00:38;;;;;;;;;47.00;36.25;;;;;;;;5091112;27;51092;-54
2023/01/21 03:03:22;;;;;;;;;49.00;37.75;;;;;;;;5089594;27;51171;-51
2023/01/21 03:06:09;;;;;;;;;47.25;39.00;;;;;;;;5083882;27;51217;-50
2023/01/21 03:08:58;;;;;;;;;41.75;34.75;;;;;;;;5088649;27;51153;-51
2023/01/21 03:11:48;;;;;;;;;50.00;38.00;;;;;;;;5087460;27;51095;-53
2023/01/21 03:17:59;;;;;;;;;51.50;38.50;;;;;;;;5086934;27;51081;-50
2023/01/21 03:20:49;;;;;;;;;50.75;36.75;;;;;;;;5088730;27;51264;-54
2023/01/21 03:23:42;;;;;;;;;48.75;38.25;;;;;;;;5088951;27;51116;-52
2023/01/21 03:26:30;;;;;;;;;49.50;37.00;;;;;;;;5092009;27;51164;-53
2023/01/21 03:29:21;;;;;;;;;51.50;39.25;;;;;;;;5087451;27;51239;-50
2023/01/21 03:32:08;;;;;;;;;44.75;37.25;;;;;;;;5088032;27;51126;-52
2023/01/21 03:34:53;;;;;;;;;49.25;36.50;;;;;;;;5088208;27;51128;-53
2023/01/21 03:37:38;;;;;;;;;48.00;38.50;;;;;;;;5084079;27;51208;-51
2023/01/21 03:40:24;;;;;;;;;48.50;38.25;;;;;;;;5083967;27;51161;-54
2023/01/21 03:43:09;;;;;;;;;51.75;41.75;;;;;;;;5085436;27;51232;-52
2023/01/21 03:46:19;;;;;;;;;49.50;39.75;;;;;;;;5082201;27;51151;-55
2023/01/21 03:49:24;;;;;;;;;48.00;36.75;;;;;;;;5065718;27;51196;-51
2023/01/21 03:52:09;;;;;;;;;48.00;39.00;;;;;;;;5087638;27;51527;-51
2023/01/21 03:54:53;;;;;;;;;48.00;38.75;;;;;;;;5087655;27;51138;-52
2023/01/21 03:57:38;;;;;;;;;47.75;35.75;;;;;;;;5086046;27;51820;-54
2023/01/21 04:00:22;;;;;;;;;49.75;38.75;;;;;;;;5084653;27;51119;-50
2023/01/21 04:03:06;;;;;;;;;50.00;38.00;;;;;;;;5089605;27;51896;-54
2023/01/21 04:05:51;;;;;;;;;46.00;35.75;;;;;;;;5084934;27;51607;-52
2023/01/21 04:08:35;;;;;;;;;46.25;39.50;;;;;;;;5089434;27;51211;-53
2023/01/21 04:11:19;;;;;;;;;49.75;40.25;;;;;;;;5087616;27;51158;-51
2023/01/21 04:14:04;;;;;;;;;48.25;38.00;;;;;;;;5084855;27;51253;-54
2023/01/21 04:16:48;;;;;;;;;52.50;42.00;;;;;;;;5088589;27;51200;-53
2023/01/21 04:19:33;;;;;;;;;49.00;39.25;;;;;;;;5088103;27;51204;-56
2023/01/21 04:22:17;;;;;;;;;50.25;40.25;;;;;;;;5084805;27;51151;-52
2023/01/21 04:25:02;;;;;;;;;50.25;40.25;;;;;;;;5084434;27;51222;-53
2023/01/21 04:27:46;;;;;;;;;52.25;41.00;;;;;;;;5086647;27;51279;-53
2023/01/21 04:30:30;;;;;;;;;51.00;39.00;;;;;;;;5085962;27;51346;-50
2023/01/21 04:33:15;;;;;;;;;50.75;40.25;;;;;;;;5081809;27;51376;-56
2023/01/21 04:36:00;;;;;;;;;49.25;39.50;;;;;;;;5091419;27;51193;-52
2023/01/21 04:38:44;;;;;;;;;48.25;38.50;;;;;;;;5086147;27;51199;-53
2023/01/21 04:41:28;;;;;;;;;50.00;39.75;;;;;;;;5089888;27;51448;-53
2023/01/21 04:44:13;;;;;;;;;52.25;40.50;;;;;;;;5089328;27;51155;-52
2023/01/21 04:46:57;;;;;;;;;51.50;40.00;;;;;;;;5080454;27;51500;-55
2023/01/21 04:49:42;;;;;;;;;58.00;40.75;;;;;;;;5086396;27;51172;-49
2023/01/21 04:52:26;;;;;;;;;50.75;40.25;;;;;;;;5089211;27;51182;-52
2023/01/21 04:55:11;;;;;;;;;49.50;38.00;;;;;;;;5086362;27;51136;-49
2023/01/21 04:57:55;;;;;;;;;50.00;40.50;;;;;;;;5081689;27;51205;-52
2023/01/21 05:00:41;;;;;;;;;58.25;40.50;;;;;;;;5091562;27;51248;-52
2023/01/21 05:03:26;;;;;;;;;54.00;41.75;;;;;;;;5085575;27;51158;-52
2023/01/21 05:06:11;;;;;;;;;53.25;39.75;;;;;;;;5085135;27;51162;-52
2023/01/21 05:08:55;;;;;;;;;50.50;39.50;;;;;;;;5086132;27;51574;-52
2023/01/21 05:11:39;;;;;;;;;53.25;40.75;;;;;;;;5082086;27;52066;-52
2023/01/21 05:14:24;;;;;;;;;55.75;42.25;;;;;;;;5084461;27;52573;-52
2023/01/21 05:17:09;;;;;;;;;47.25;37.00;;;;;;;;5085333;27;51192;-53
2023/01/21 05:19:53;;;;;;;;;57.50;42.75;;;;;;;;5090465;27;51153;-54
2023/01/21 05:22:38;;;;;;;;;50.50;39.50;;;;;;;;5085358;27;51691;-56
2023/01/21 05:25:22;;;;;;;;;52.25;40.25;;;;;;;;5081927;27;51248;-52
2023/01/21 05:28:07;;;;;;;;;51.25;40.00;;;;;;;;5086277;27;52057;-54
2023/01/21 05:30:51;;;;;;;;;48.00;39.75;;;;;;;;5081296;27;51100;-52
2023/01/21 05:33:36;;;;;;;;;53.50;40.00;;;;;;;;5088547;27;51259;-53
2023/01/21 05:36:20;;;;;;;;;49.00;40.25;;;;;;;;5086384;27;51126;-51
2023/01/21 05:39:05;;;;;;;;;51.50;40.50;;;;;;;;5085968;27;51115;-55
2023/01/21 05:41:49;;;;;;;;;52.50;40.75;;;;;;;;5089071;27;51073;-53
2023/01/21 05:44:33;;;;;;;;;51.75;40.50;;;;;;;;5081359;27;51135;-53
2023/01/21 05:47:18;;;;;;;;;47.50;38.50;;;;;;;;5076433;27;51692;-52
2023/01/21 05:50:02;;;;;;;;;54.50;42.25;;;;;;;;5083879;27;51083;-54
2023/01/21 05:52:46;;;;;;;;;58.50;41.25;;;;;;;;5082982;27;51123;-53
2023/01/21 05:55:31;;;;;;;;;55.75;42.75;;;;;;;;5084040;27;51216;-52
2023/01/21 05:58:15;;;;;;;;;56.50;43.50;;;;;;;;5093333;27;51148;-53
2023/01/21 06:01:00;;;;;;;;;57.25;45.00;;;;;;;;5088715;27;51713;-49
2023/01/21 06:03:44;;;;;;;;;65.00;48.50;;;;;;;;5087472;27;51168;-56
2023/01/21 06:06:28;;;;;;;;;68.25;51.50;;;;;;;;5084726;27;51080;-54
2023/01/21 06:09:13;;;;;;;;;65.50;50.50;;;;;;;;5083760;27;51550;-53
2023/01/21 06:11:57;;;;;;;;;62.50;46.25;;;;;;;;5086095;27;51112;-57
2023/01/21 06:14:42;;;;;;;;;62.50;47.75;;;;;;;;5087163;27;51493;-58
2023/01/21 06:17:26;;;;;;;;;66.50;49.50;;;;;;;;5087356;27;51122;-55
2023/01/21 06:20:11;;;;;;;;;64.75;48.00;;;;;;;;5093989;27;51643;-54
2023/01/21 06:22:56;;;;;;;;;66.75;47.75;;;;;;;;5086928;27;51104;-54
2023/01/21 06:25:42;;;;;;;;;60.25;47.50;;;;;;;;5088289;27;51075;-53
2023/01/21 06:28:28;;;;;;;;;62.00;49.25;;;;;;;;5090435;27;51089;-53
2023/01/21 06:31:12;;;;;;;;;62.50;50.50;;;;;;;;5090320;27;51189;-51
2023/01/21 06:33:56;;;;;;;;;64.00;50.25;;;;;;;;5087395;27;51099;-53
2023/01/21 06:36:41;;;;;;;;;62.50;49.00;;;;;;;;5092287;27;51143;-54
2023/01/21 06:39:25;;;;;;;;;63.75;48.25;;;;;;;;5092831;27;51202;-56
2023/01/21 06:42:10;;;;;;;;;66.75;51.25;;;;;;;;5087778;27;51165;-51
2023/01/21 06:44:54;;;;;;;;;65.75;50.25;;;;;;;;5089123;27;51415;-54
2023/01/21 06:47:40;;;;;;;;;64.00;50.25;;;;;;;;5088400;27;51117;-56
2023/01/21 06:50:25;;;;;;;;;61.50;48.00;;;;;;;;5083927;27;51671;-55
2023/01/21 06:53:10;;;;;;;;;61.00;47.75;;;;;;;;5092720;27;51160;-51
2023/01/21 06:55:54;;;;;;;;;64.75;49.75;;;;;;;;5092762;27;51118;-53
2023/01/21 06:58:39;;;;;;;;;65.00;48.75;;;;;;;;5085631;27;51218;-55
2023/01/21 07:01:23;;;;;;;;;64.75;50.25;;;;;;;;5082132;27;51336;-53
2023/01/21 07:04:08;;;;;;;;;67.50;52.25;;;;;;;;5090008;27;51147;-52
2023/01/21 07:06:54;;;;;;;;;68.50;53.25;;;;;;;;5090954;27;51214;-53
2023/01/21 07:09:38;;;;;;;;;66.25;52.25;;;;;;;;5084281;27;51317;-53
2023/01/21 07:12:23;;;;;;;;;63.50;50.25;;;;;;;;5081772;27;51061;-51
2023/01/21 07:15:07;;;;;;;;;63.25;49.00;;;;;;;;5082889;27;51116;-52
2023/01/21 07:17:53;;;;;;;;;65.50;50.50;;;;;;;;5089219;27;52494;-51
2023/01/21 07:20:39;;;;;;;;;68.75;49.50;;;;;;;;5081955;27;50978;-53
2023/01/21 07:23:23;;;;;;;;;66.00;51.50;;;;;;;;5084841;27;51481;-57
2023/01/21 07:26:07;;;;;;;;;70.00;54.25;;;;;;;;5089414;27;51664;-54
2023/01/21 07:28:52;;;;;;;;;66.25;53.00;;;;;;;;5098794;27;51182;-53
2023/01/21 07:31:36;;;;;;;;;68.50;52.00;;;;;;;;5088809;27;51139;-53
2023/01/21 07:34:20;;;;;;;;;69.50;51.25;;;;;;;;5091624;27;51509;-50
2023/01/21 07:37:05;;;;;;;;;68.25;52.75;;;;;;;;5100407;27;51113;-53
2023/01/21 07:39:49;;;;;;;;;65.75;50.25;;;;;;;;5101567;27;51589;-52
2023/01/21 07:42:33;;;;;;;;;69.75;54.75;;;;;;;;5101260;27;51112;-53
2023/01/21 07:45:19;;;;;;;;;71.00;55.25;;;;;;;;5088196;27;51148;-55
2023/01/21 07:48:03;;;;;;;;;73.50;53.25;;;;;;;;5082213;27;51224;-53
2023/01/21 07:50:47;;;;;;;;;66.75;52.00;;;;;;;;5084210;27;51139;-53
2023/01/21 07:53:32;;;;;;;;;61.50;48.50;;;;;;;;5080883;27;51160;-54
2023/01/21 07:56:17;;;;;;;;;62.50;48.75;;;;;;;;5095829;27;51438;-53
2023/01/21 07:59:01;;;;;;;;;59.25;44.75;;;;;;;;5080388;27;52036;-49
2023/01/21 08:01:45;;;;;;;;;59.00;45.50;;;;;;;;5100808;27;50986;-54
2023/01/21 08:04:30;;;;;;;;;60.00;46.00;;;;;;;;5090279;27;51057;-50
2023/01/21 08:07:14;;;;;;;;;61.00;47.50;;;;;;;;5083271;27;51270;-55
2023/01/21 08:09:59;;;;;;;;;58.00;45.00;;;;;;;;5088846;27;51196;-54
2023/01/21 08:12:44;;;;;;;;;58.25;45.75;;;;;;;;5084384;27;51447;-54
2023/01/21 08:15:28;;;;;;;;;56.50;44.50;;;;;;;;5080557;27;51617;-53
2023/01/21 08:18:12;;;;;;;;;58.50;45.00;;;;;;;;5080257;27;51148;-50
2023/01/21 08:20:57;;;;;;;;;58.75;46.00;;;;;;;;5080435;27;51168;-53
2023/01/21 08:23:41;;;;;;;;;60.00;45.50;;;;;;;;5087791;27;51062;-53
2023/01/21 08:26:26;;;;;;;;;55.00;43.75;;;;;;;;5100963;27;51101;-54
2023/01/21 08:29:11;;;;;;;;;45.25;35.50;;;;;;;;5097682;27;51679;-57
2023/01/21 08:31:56;;;;;;;;;52.00;40.25;;;;;;;;5080076;27;51200;-51
2023/01/21 08:34:40;;;;;;;;;53.25;42.25;;;;;;;;5080459;27;51093;-52
2023/01/21 08:37:25;;;;;;;;;53.50;40.75;;;;;;;;5079514;27;51345;-55
2023/01/21 08:40:10;;;;;;;;;46.75;36.25;;;;;;;;5080092;27;51152;-56
2023/01/21 08:42:58;;;;;;;;;45.00;37.50;;;;;;;;5079931;27;51095;-56
2023/01/21 08:45:42;;;;;;;;;46.00;35.50;;;;;;;;5080255;27;51098;-52
2023/01/21 08:48:27;;;;;;;;;44.50;34.00;;;;;;;;5078772;27;51328;-56
2023/01/21 08:51:11;;;;;;;;;47.00;36.25;;;;;;;;5079175;27;51157;-53
2023/01/21 08:53:56;;;;;;;;;44.50;34.00;;;;;;;;5080105;27;51577;-56
2023/01/21 08:56:40;;;;;;;;;43.25;34.75;;;;;;;;5085824;27;51106;-56
2023/01/21 08:59:29;;;;;;;;;43.25;34.75;;;;;;;;5080347;27;51057;-55
2023/01/21 09:02:13;;;;;;;;;41.50;32.75;;;;;;;;5086114;27;51273;-53
2023/01/21 09:04:58;;;;;;;;;39.25;31.75;;;;;;;;5078801;27;51442;-57
2023/01/21 09:07:49;;;;;;;;;40.50;32.75;;;;;;;;5054980;28;51328;-55
2023/01/21 09:13:37;;;;;;;;;41.50;34.25;;;;;;;;5056234;28;51420;-55
2023/01/21 09:16:22;;;;;;;;;40.00;31.00;;;;;;;;5056076;28;51071;-58
2023/01/21 09:19:06;;;;;;;;;49.25;37.25;;;;;;;;5051285;28;51654;-56
2023/01/21 09:21:54;;;;;;;;;41.50;32.50;;;;;;;;5056460;28;51007;-57
2023/01/21 09:24:38;;;;;;;;;43.75;34.50;;;;;;;;5052940;28;51041;-54
2023/01/21 09:27:26;;;;;;;;;40.50;33.00;;;;;;;;5055693;28;51073;-55
2023/01/21 09:30:10;;;;;;;;;42.75;33.00;;;;;;;;5056010;28;51670;-56
2023/01/21 09:32:54;;;;;;;;;48.00;35.50;;;;;;;;5056320;28;51083;-56
2023/01/21 09:35:39;;;;;;;;;44.00;35.50;;;;;;;;5057084;28;51222;-55
2023/01/21 09:38:24;;;;;;;;;37.25;31.50;;;;;;;;5055987;28;51347;-53
2023/01/21 09:41:14;;;;;;;;;44.50;35.25;;;;;;;;5056082;28;51256;-54
2023/01/21 09:44:01;;;;;;;;;39.50;31.50;;;;;;;;5056501;28;51100;-54
2023/01/21 09:46:45;;;;;;;;;42.25;34.00;;;;;;;;5066856;28;51151;-55
2023/01/21 09:49:32;;;;;;;;;40.25;32.00;;;;;;;;5060012;28;51139;-57
2023/01/21 09:52:22;;;;;;;;;28.75;21.00;;;;;;;;5062867;28;51175;-54
2023/01/21 09:57:58;;;;;;;;;42.00;32.25;;;;;;;;5019298;28;51047;-55
2023/01/21 10:00:43;;;;;;;;;39.50;32.00;;;;;;;;5009674;28;51130;-55
2023/01/21 10:03:41;;;;;;;;;40.50;32.50;;;;;;;;5019685;28;51064;-56
2023/01/21 10:06:28;;;;;;;;;39.75;31.50;;;;;;;;5019761;28;51059;-55
2023/01/21 10:09:15;;;;;;;;;39.00;28.25;;;;;;;;5038337;28;51537;-57
2023/01/21 10:12:02;;;;;;;;;39.00;32.25;;;;;;;;5039801;28;51099;-55
2023/01/21 10:15:01;;;;;;;;;38.50;30.75;;;;;;;;5037704;28;51087;-53
2023/01/21 10:18:15;;;;;;;;;38.00;30.00;;;;;;;;5033472;28;51097;-52
2023/01/21 10:21:05;;;;;;;;;37.75;29.00;;;;;;;;5030707;28;51729;-55
2023/01/21 10:23:56;;;;;;;;;40.50;31.50;;;;;;;;5025465;28;51120;-54
2023/01/21 10:26:42;;;;;;;;;40.50;30.50;;;;;;;;5039836;28;51082;-55
2023/01/21 10:29:27;;;;;;;;;36.00;29.75;;;;;;;;5038754;28;51360;-58
2023/01/21 10:32:14;;;;;;;;;36.50;29.25;;;;;;;;5039244;28;51229;-56
2023/01/21 10:34:59;;;;;;;;;39.00;29.00;;;;;;;;5063332;27;51815;-55
2023/01/21 10:37:50;;;;;;;;;37.00;30.75;;;;;;;;5082086;27;51043;-53
2023/01/21 10:40:43;;;;;;;;;36.50;29.50;;;;;;;;5081479;27;51008;-53
2023/01/21 10:43:37;;;;;;;;;36.00;29.50;;;;;;;;5081077;27;51126;-56
2023/01/21 10:46:33;;;;;;;;;36.75;29.00;;;;;;;;5081865;27;51149;-55
2023/01/21 10:49:18;;;;;;;;;35.00;30.00;;;;;;;;5083782;27;51199;-54
2023/01/21 10:52:04;;;;;;;;;48.50;39.75;;;;;;;;5081368;27;51129;-56
2023/01/21 10:54:54;;;;;;;;;39.25;29.75;;;;;;;;5096622;27;51179;-54
2023/01/21 10:57:39;;;;;;;;;52.25;40.75;;;;;;;;5088641;27;51076;-56
2023/01/21 11:03:13;;;;;;;;;39.75;32.00;;;;;;;;5078880;27;51355;-55
2023/01/21 11:05:59;;;;;;;;;33.25;28.00;;;;;;;;5084145;27;51090;-56
2023/01/21 11:08:45;;;;;;;;;31.50;27.00;;;;;;;;5080984;27;51154;-55
2023/01/21 11:11:50;;;;;;;;;40.25;32.00;;;;;;;;5019635;28;51133;-54
2023/01/21 11:14:34;;;;;;;;;39.75;30.50;;;;;;;;5023793;28;51132;-56
2023/01/21 11:17:35;;;;;;;;;33.25;28.75;;;;;;;;4998858;28;51128;-57
2023/01/21 11:20:27;;;;;;;;;39.75;31.00;;;;;;;;5009482;28;50513;-54
2023/01/21 11:23:24;;;;;;;;;29.25;26.75;;;;;;;;5017631;28;51260;-53
2023/01/21 11:26:20;;;;;;;;;35.25;29.00;;;;;;;;5017875;28;51088;-56
2023/01/21 11:29:07;;;;;;;;;35.50;29.75;;;;;;;;5001013;28;51184;-55
2023/01/21 11:32:23;;;;;;;;;37.75;31.00;;;;;;;;5017743;28;51088;-53
2023/01/21 11:35:09;;;;;;;;;41.75;31.50;;;;;;;;5017571;28;51049;-55
2023/01/21 11:37:53;;;;;;;;;40.75;30.75;;;;;;;;5018403;28;51392;-56
2023/01/21 11:40:37;;;;;;;;;38.50;31.25;;;;;;;;5019284;28;51109;-52
2023/01/21 11:43:32;;;;;;;;;38.25;30.00;;;;;;;;5069599;27;51181;-55
2023/01/21 11:46:32;;;;;;;;;45.50;35.00;;;;;;;;5098800;27;51088;-57
2023/01/21 11:49:19;;;;;;;;;40.75;33.25;;;;;;;;5097199;27;51041;-52
2023/01/21 11:52:14;;;;;;;;;39.75;31.75;;;;;;;;5093773;27;51248;-56
2023/01/21 11:55:01;;;;;;;;;40.50;30.50;;;;;;;;5082945;27;51120;-57
2023/01/21 11:57:49;;;;;;;;;38.75;30.25;;;;;;;;5085311;27;51104;-55
2023/01/21 12:00:34;;;;;;;;;32.75;29.50;;;;;;;;5085844;27;51237;-56
2023/01/21 12:03:20;;;;;;;;;33.75;30.00;;;;;;;;5090094;27;51577;-56
2023/01/21 12:06:05;;;;;;;;;38.25;32.25;;;;;;;;5100417;27;51116;-54
2023/01/21 12:08:53;;;;;;;;;38.00;30.00;;;;;;;;5100468;27;51106;-56
2023/01/21 12:11:37;;;;;;;;;38.25;31.75;;;;;;;;5099109;27;51111;-54
2023/01/21 12:14:28;;;;;;;;;39.50;31.00;;;;;;;;5100576;27;51202;-56
2023/01/21 12:17:23;;;;;;;;;44.50;34.50;;;;;;;;5092666;27;51023;-54
2023/01/21 12:20:10;;;;;;;;;43.50;34.00;;;;;;;;5095536;27;51179;-55
2023/01/21 12:23:01;;;;;;;;;43.75;34.00;;;;;;;;5094864;27;51147;-55
2023/01/21 12:26:14;;;;;;;;;44.50;35.75;;;;;;;;5080000;27;51219;-54
2023/01/21 12:29:17;;;;;;;;;45.25;35.00;;;;;;;;5073732;27;51642;-55
2023/01/21 12:32:11;;;;;;;;;40.50;30.50;;;;;;;;5092222;27;51352;-54
2023/01/21 12:34:58;;;;;;;;;40.00;30.75;;;;;;;;5080397;27;51439;-53
2023/01/21 12:37:48;;;;;;;;;39.75;32.00;;;;;;;;5079844;27;51479;-56
2023/01/21 12:40:50;;;;;;;;;38.50;31.00;;;;;;;;5080055;27;51158;-54
2023/01/21 12:43:36;;;;;;;;;34.25;28.25;;;;;;;;5078839;27;51568;-54
2023/01/21 12:46:24;;;;;;;;;44.50;32.75;;;;;;;;5073323;27;51178;-54
2023/01/21 12:49:11;;;;;;;;;41.50;30.50;;;;;;;;5080301;27;51151;-52
2023/01/21 12:52:02;;;;;;;;;35.50;29.50;;;;;;;;5080050;27;51082;-55
2023/01/21 12:55:12;;;;;;;;;44.25;31.50;;;;;;;;5079708;27;51723;-55
2023/01/21 12:58:00;;;;;;;;;40.25;32.00;;;;;;;;5079030;27;51204;-53
2023/01/21 13:00:46;;;;;;;;;40.75;30.75;;;;;;;;5092861;27;51073;-53
2023/01/21 13:03:33;;;;;;;;;40.75;31.25;;;;;;;;5080033;27;51544;-53
2023/01/21 13:06:24;;;;;;;;;31.75;29.25;;;;;;;;5082110;27;51202;-53
2023/01/21 13:09:23;;;;;;;;;27.75;26.75;;;;;;;;5078969;27;51152;-54
2023/01/21 13:12:28;;;;;;;;;33.00;29.50;;;;;;;;5093571;27;51088;-53
2023/01/21 13:15:12;;;;;;;;;37.50;30.50;;;;;;;;5099774;27;51145;-53
2023/01/21 13:17:58;;;;;;;;;37.25;32.00;;;;;;;;5079085;27;51138;-53
2023/01/21 13:20:52;;;;;;;;;33.75;28.50;;;;;;;;5079123;27;51074;-51
2023/01/21 13:23:44;;;;;;;;;36.75;29.50;;;;;;;;5080832;27;51052;-56
2023/01/21 13:26:32;;;;;;;;;36.00;30.50;;;;;;;;5084029;27;51013;-56
2023/01/21 13:29:24;;;;;;;;;33.00;27.25;;;;;;;;5082740;27;51563;-55
2023/01/21 13:32:26;;;;;;;;;40.00;31.00;;;;;;;;5083322;27;51103;-53
2023/01/21 13:35:36;;;;;;;;;36.25;31.50;;;;;;;;5091270;27;51654;-54
2023/01/21 13:38:20;;;;;;;;;34.00;29.50;;;;;;;;5083281;27;51354;-53
2023/01/21 13:41:20;;;;;;;;;45.75;33.75;;;;;;;;5094484;27;51560;-54
2023/01/21 13:44:07;;;;;;;;;31.25;28.25;;;;;;;;5103680;27;51246;-54
2023/01/21 13:47:02;;;;;;;;;40.25;30.75;;;;;;;;5103762;27;51609;-54
2023/01/21 13:49:53;;;;;;;;;36.25;30.75;;;;;;;;5103318;27;51014;-52
2023/01/21 13:52:37;;;;;;;;;33.50;28.50;;;;;;;;5103479;27;51180;-53
2023/01/21 13:55:30;;;;;;;;;31.50;28.00;;;;;;;;5081371;27;51381;-56
2023/01/21 13:58:23;;;;;;;;;40.00;32.00;;;;;;;;5081100;27;51080;-54
2023/01/21 14:01:11;;;;;;;;;39.00;32.00;;;;;;;;5080459;27;51646;-55
2023/01/21 14:04:01;;;;;;;;;37.25;28.25;;;;;;;;5080708;27;51109;-52
2023/01/21 14:07:00;;;;;;;;;38.25;31.00;;;;;;;;5092305;27;51098;-53
2023/01/21 14:09:54;;;;;;;;;35.00;29.75;;;;;;;;5090730;27;51089;-51
2023/01/21 14:12:57;;;;;;;;;42.25;32.75;;;;;;;;5082120;27;51364;-54
2023/01/21 14:15:48;;;;;;;;;35.75;31.00;;;;;;;;5082571;27;50977;-53
2023/01/21 14:18:37;;;;;;;;;36.25;31.25;;;;;;;;5098856;27;51033;-53
2023/01/21 14:21:24;;;;;;;;;27.50;19.50;;;;;;;;5082032;27;51447;-51
2023/01/21 14:24:14;;;;;;;;;40.00;31.50;;;;;;;;5082131;27;51161;-55
2023/01/21 14:27:22;;;;;;;;;41.75;29.75;;;;;;;;5098743;27;51157;-54
2023/01/21 14:30:12;;;;;;;;;32.50;26.75;;;;;;;;5069384;27;51054;-54
2023/01/21 14:33:00;;;;;;;;;36.00;30.25;;;;;;;;5082605;27;51438;-51
2023/01/21 14:35:47;;;;;;;;;42.50;31.75;;;;;;;;5096174;27;51139;-54
2023/01/21 14:38:52;;;;;;;;;36.25;29.75;;;;;;;;5103009;27;51571;-55
2023/01/21 14:41:55;;;;;;;;;39.00;31.25;;;;;;;;5102759;27;51048;-53
2023/01/21 14:44:40;;;;;;;;;36.25;30.00;;;;;;;;5102218;27;51002;-56
2023/01/21 14:47:30;;;;;;;;;34.75;30.50;;;;;;;;5086788;27;51230;-53
2023/01/21 14:50:33;;;;;;;;;37.25;31.00;;;;;;;;5075463;27;51736;-54
2023/01/21 14:53:24;;;;;;;;;43.00;32.25;;;;;;;;5089963;27;51120;-55
2023/01/21 14:56:14;;;;;;;;;40.50;31.75;;;;;;;;5085859;27;50996;-49
2023/01/21 14:59:00;;;;;;;;;41.50;31.00;;;;;;;;5088408;27;51452;-54
2023/01/21 15:01:46;;;;;;;;;48.25;34.00;;;;;;;;5081251;27;51174;-52
2023/01/21 15:04:31;;;;;;;;;42.25;32.50;;;;;;;;5081380;27;51575;-54
2023/01/21 15:07:17;;;;;;;;;42.25;31.25;;;;;;;;5081371;27;51257;-54
2023/01/21 15:10:07;;;;;;;;;41.25;32.25;;;;;;;;5081547;27;51073;-53
2023/01/21 15:12:54;;;;;;;;;36.25;30.75;;;;;;;;5081123;27;51499;-51
2023/01/21 15:15:40;;;;;;;;;45.50;33.50;;;;;;;;5081168;27;51094;-55
2023/01/21 15:18:25;;;;;;;;;36.75;31.00;;;;;;;;5081479;27;51114;-56
2023/01/21 15:21:29;;;;;;;;;38.50;32.25;;;;;;;;5084401;27;51646;-56
2023/01/21 15:24:24;;;;;;;;;37.25;31.00;;;;;;;;5058870;27;51559;-48
2023/01/21 15:27:19;;;;;;;;;34.50;30.50;;;;;;;;5081377;27;51326;-49
2023/01/21 15:30:03;;;;;;;;;39.50;31.00;;;;;;;;5088118;27;51575;-54
2023/01/21 15:32:49;;;;;;;;;37.25;31.50;;;;;;;;5096380;27;51520;-52
2023/01/21 15:35:34;;;;;;;;;35.25;31.00;;;;;;;;5086724;27;51119;-52
2023/01/21 15:38:19;;;;;;;;;38.75;32.00;;;;;;;;5081739;27;51154;-51
2023/01/21 15:41:09;;;;;;;;;38.00;29.25;;;;;;;;5084584;27;51068;-52
2023/01/21 15:44:06;;;;;;;;;39.75;31.75;;;;;;;;5083996;27;51251;-53
2023/01/21 15:47:16;;;;;;;;;41.50;35.00;;;;;;;;5087831;27;51167;-52
2023/01/21 15:50:19;;;;;;;;;41.75;33.25;;;;;;;;5086919;27;51411;-53
2023/01/21 15:53:24;;;;;;;;;38.50;31.50;;;;;;;;5087444;27;51299;-52
2023/01/21 15:56:18;;;;;;;;;44.25;33.25;;;;;;;;5053442;27;51580;-55
2023/01/21 15:59:20;;;;;;;;;43.25;32.00;;;;;;;;5081084;27;51164;-54
2023/01/21 16:02:16;;;;;;;;;42.25;32.50;;;;;;;;5095020;27;51083;-54
2023/01/21 16:05:19;;;;;;;;;34.75;30.25;;;;;;;;5082691;27;51156;-53
2023/01/21 16:08:22;;;;;;;;;42.50;33.75;;;;;;;;5092732;27;51149;-54
2023/01/21 16:11:06;;;;;;;;;43.75;36.00;;;;;;;;5088924;27;51133;-52
2023/01/21 16:13:50;;;;;;;;;45.50;37.25;;;;;;;;5080765;27;51153;-53
2023/01/21 16:16:34;;;;;;;;;46.50;36.50;;;;;;;;5093095;27;51342;-54
2023/01/21 16:19:20;;;;;;;;;39.25;32.50;;;;;;;;5100907;27;51216;-54
2023/01/21 16:22:08;;;;;;;;;41.25;31.75;;;;;;;;5083981;27;51630;-56
2023/01/21 16:24:56;;;;;;;;;41.75;32.25;;;;;;;;5100809;27;51173;-54
2023/01/21 16:27:44;;;;;;;;;37.75;33.25;;;;;;;;5101193;27;51115;-53
2023/01/21 16:30:30;;;;;;;;;44.25;34.00;;;;;;;;5100736;27;50978;-56
2023/01/21 16:33:15;;;;;;;;;44.50;34.25;;;;;;;;5100514;27;51076;-52